Time;durP1;ratioP1;P1;durP2;ratioP2;P2;SDS_P1;SDS_P2;PMS_P1;PMS_P2;Temp;Humidity;BMP_temperature;BMP_pressure;BME280_temperature;BME280_humidity;BME280_pressure;Samples;Min_cycle;Max_cycle;Signal;HPM_P1;HPM_P2
2024/01/12 00:00:10;;;;;;;350.73;61.13;;;;;;;-144.73;100.00;54686.84;5036144;28;20045;-73
2024/01/12 00:02:35;;;;;;;537.20;82.90;;;;;;;-144.73;100.00;54705.31;5035482;28;20504;-74
2024/01/12 00:05:01;;;;;;;609.00;93.03;;;;;;;-144.73;100.00;54678.63;5036067;28;20021;-73
2024/01/12 00:07:26;;;;;;;492.97;82.13;;;;;;;-144.73;100.00;54682.75;5026457;28;20123;-73
2024/01/12 00:09:51;;;;;;;430.93;81.27;;;;;;;-144.73;100.00;54654.00;5053849;28;20032;-79
2024/01/12 00:12:17;;;;;;;331.73;66.93;;;;;;;-144.73;100.00;54682.75;5035331;28;20096;-74
2024/01/12 00:14:42;;;;;;;696.43;113.90;;;;;;;-144.73;100.00;54654.00;5035899;28;20104;-73
2024/01/12 00:17:07;;;;;;;477.07;80.10;;;;;;;-144.73;100.00;54680.69;5035089;28;20033;-73
2024/01/12 00:19:33;;;;;;;544.93;96.47;;;;;;;-144.73;100.00;54703.28;5035090;28;20475;-75
2024/01/12 00:21:58;;;;;;;489.30;83.63;;;;;;;-144.73;100.00;54674.53;5034441;28;20037;-73
2024/01/12 00:24:24;;;;;;;600.53;122.33;;;;;;;-144.73;100.00;54670.44;5035157;28;20037;-72
2024/01/12 00:26:49;;;;;;;218.10;57.00;;;;;;;-144.73;100.00;54699.16;5035347;28;20099;-72
2024/01/12 00:29:15;;;;;;;408.73;90.20;;;;;;;-144.73;100.00;54686.84;5035649;28;20058;-72
2024/01/12 00:31:40;;;;;;;590.73;101.10;;;;;;;-144.73;100.00;54674.53;5033496;28;20036;-73
2024/01/12 00:34:06;;;;;;;448.50;76.20;;;;;;;-144.73;100.00;54670.44;5034464;28;20107;-75
2024/01/12 00:36:34;;;;;;;321.27;77.47;;;;;;;-144.73;100.00;54670.44;5035187;28;20035;-73
2024/01/12 00:38:59;;;;;;;240.83;70.40;;;;;;;-144.73;100.00;54682.75;5035362;28;20029;-73
2024/01/12 00:41:25;;;;;;;185.53;57.87;;;;;;;-144.73;100.00;54654.00;5034745;28;20045;-73
2024/01/12 00:43:50;;;;;;;305.77;90.53;;;;;;;-144.73;100.00;54719.69;5052981;28;20123;-74
2024/01/12 00:46:16;;;;;;;184.30;61.47;;;;;;;-144.73;100.00;54670.44;5035049;28;20506;-73
2024/01/12 00:48:43;;;;;;;167.63;62.50;;;;;;;-144.73;100.00;54670.44;5034082;28;20026;-73
2024/01/12 00:51:10;;;;;;;156.83;58.73;;;;;;;-144.73;100.00;54670.44;5034656;28;20037;-74
2024/01/12 00:53:39;;;;;;;111.73;45.77;;;;;;;-144.73;100.00;54682.75;5035015;28;20086;-73
2024/01/12 00:56:04;;;;;;;164.90;60.13;;;;;;;-144.73;100.00;54707.38;5034719;28;20032;-77
2024/01/12 00:58:29;;;;;;;185.47;66.47;;;;;;;-144.73;100.00;54637.59;5052944;28;20029;-75
2024/01/12 01:00:55;;;;;;;122.37;53.03;;;;;;;-144.73;100.00;54690.97;5034593;28;20040;-73
2024/01/12 01:03:20;;;;;;;136.00;58.30;;;;;;;-144.73;100.00;54703.28;5034866;28;20033;-73
2024/01/12 01:05:48;;;;;;;140.63;57.50;;;;;;;-144.73;100.00;54711.47;5034462;28;20032;-74
2024/01/12 01:08:14;;;;;;;138.30;60.47;;;;;;;-144.73;100.00;54699.16;5034604;28;20024;-75
2024/01/12 01:10:41;;;;;;;127.30;53.03;;;;;;;-144.73;100.00;54711.47;5034370;28;20094;-74
2024/01/12 01:13:07;;;;;;;110.20;46.80;;;;;;;-144.73;100.00;54711.47;5036477;28;20028;-75
2024/01/12 01:15:32;;;;;;;100.27;42.97;;;;;;;-144.73;100.00;54723.81;5034579;28;20025;-73
2024/01/12 01:17:58;;;;;;;124.10;51.20;;;;;;;-144.73;100.00;54719.69;5034407;28;20037;-74
2024/01/12 01:20:24;;;;;;;139.53;53.83;;;;;;;-144.73;100.00;54695.06;5034790;28;20036;-73
2024/01/12 01:22:49;;;;;;;165.97;66.23;;;;;;;-144.73;100.00;54686.84;5034140;28;20586;-74
2024/01/12 01:25:15;;;;;;;134.27;56.17;;;;;;;-144.73;100.00;54699.16;5034419;28;20025;-72
2024/01/12 01:27:40;;;;;;;142.70;51.93;;;;;;;-144.73;100.00;54670.44;5034205;28;20036;-73
2024/01/12 01:30:07;;;;;;;126.53;55.60;;;;;;;-144.73;100.00;54678.63;5034838;28;20016;-74
2024/01/12 01:32:32;;;;;;;124.27;53.97;;;;;;;-144.73;100.00;54707.38;5053301;28;20045;-73
2024/01/12 01:34:57;;;;;;;119.73;51.03;;;;;;;-144.73;100.00;54703.28;5064055;28;20066;-74
2024/01/12 01:37:23;;;;;;;108.63;47.53;;;;;;;-144.73;100.00;54699.16;5034460;28;20032;-74
2024/01/12 01:39:48;;;;;;;84.50;42.03;;;;;;;-144.73;100.00;54707.38;5034335;28;20025;-73
2024/01/12 01:42:14;;;;;;;101.90;47.17;;;;;;;-144.73;100.00;54682.75;5033545;28;20128;-74
2024/01/12 01:44:39;;;;;;;91.17;41.10;;;;;;;-144.73;100.00;54705.31;5032678;28;20201;-74
2024/01/12 01:47:05;;;;;;;112.23;49.10;;;;;;;-144.73;100.00;54693.00;5030177;28;20037;-76
2024/01/12 01:49:30;;;;;;;103.80;49.77;;;;;;;-144.73;100.00;54686.84;5032536;28;20047;-74
2024/01/12 01:51:56;;;;;;;110.03;50.73;;;;;;;-144.73;100.00;54658.13;5041139;28;20041;-75
2024/01/12 01:54:21;;;;;;;142.80;56.53;;;;;;;-144.73;100.00;54674.53;5014927;28;20075;-74
2024/01/12 01:56:47;;;;;;;129.67;48.67;;;;;;;-144.73;100.00;54690.97;5025644;28;20033;-73
2024/01/12 01:59:14;;;;;;;106.47;42.53;;;;;;;-144.73;100.00;54699.16;5039962;28;20040;-76
2024/01/12 02:01:39;;;;;;;103.03;42.70;;;;;;;-144.73;100.00;54711.47;5048929;28;20048;-73
2024/01/12 02:04:06;;;;;;;83.10;39.10;;;;;;;-144.73;100.00;54695.06;5038551;28;20029;-76
2024/01/12 02:06:34;;;;;;;106.33;41.20;;;;;;;-144.73;100.00;54711.47;5056962;28;20028;-74
2024/01/12 02:09:00;;;;;;;83.43;36.83;;;;;;;-144.73;100.00;54711.47;5047371;28;20028;-74
2024/01/12 02:11:26;;;;;;;120.20;46.80;;;;;;;-144.73;100.00;54699.16;5039999;28;20427;-74
2024/01/12 02:13:56;;;;;;;195.27;61.17;;;;;;;-144.73;100.00;54670.44;5053433;28;20028;-75
2024/01/12 02:16:21;;;;;;;98.23;42.67;;;;;;;-144.73;100.00;54680.69;5024441;28;20029;-74
2024/01/12 02:18:47;;;;;;;100.50;40.70;;;;;;;-144.73;100.00;54674.53;5014293;28;20040;-73
2024/01/12 02:21:12;;;;;;;95.37;41.97;;;;;;;-144.73;100.00;54690.97;5031040;28;20041;-73
2024/01/12 02:23:39;;;;;;;73.77;32.87;;;;;;;-144.73;100.00;54682.75;5014010;28;20052;-73
2024/01/12 02:26:04;;;;;;;129.40;53.07;;;;;;;-144.73;100.00;54719.69;5018423;28;20431;-73
2024/01/12 02:28:31;;;;;;;90.63;38.43;;;;;;;-144.73;100.00;54699.16;5033924;28;20087;-74
2024/01/12 02:30:56;;;;;;;420.27;61.97;;;;;;;-144.73;100.00;54670.44;5051152;28;20029;-74
2024/01/12 02:33:22;;;;;;;291.23;69.57;;;;;;;-144.73;100.00;54690.97;5033200;28;20055;-73
2024/01/12 02:35:47;;;;;;;634.60;113.73;;;;;;;-144.73;100.00;54658.13;5032318;28;20024;-73
2024/01/12 02:38:12;;;;;;;1047.50;147.77;;;;;;;-144.73;100.00;54670.44;5051180;28;20025;-74
2024/01/12 02:40:37;;;;;;;571.03;82.97;;;;;;;-144.73;100.00;54699.16;5032682;28;20025;-73
2024/01/12 02:43:03;;;;;;;751.37;136.90;;;;;;;-144.73;100.00;54690.97;5032977;28;20021;-74
2024/01/12 02:45:29;;;;;;;459.57;71.87;;;;;;;-144.73;100.00;54678.63;5033772;28;20028;-75
2024/01/12 02:47:54;;;;;;;775.23;105.90;;;;;;;-144.73;100.00;54697.13;5032978;28;20037;-72
2024/01/12 02:50:19;;;;;;;585.87;67.13;;;;;;;-144.73;100.00;54670.44;5030881;28;20036;-75
2024/01/12 02:52:44;;;;;;;908.37;120.43;;;;;;;-144.73;100.00;54707.38;5032263;28;20067;-73
2024/01/12 02:55:10;;;;;;;502.27;88.80;;;;;;;-144.73;100.00;54654.00;5032555;28;20029;-73
2024/01/12 02:57:35;;;;;;;608.53;106.63;;;;;;;-144.73;100.00;54703.28;5028075;28;20037;-78
2024/01/12 03:00:00;;;;;;;358.00;72.83;;;;;;;-144.73;100.00;54682.75;5029089;28;20026;-73
2024/01/12 03:02:26;;;;;;;317.40;65.10;;;;;;;-144.73;100.00;54725.84;5028367;28;20048;-73
2024/01/12 03:04:51;;;;;;;626.10;60.50;;;;;;;-144.73;100.00;54662.22;5033164;28;20032;-73
2024/01/12 03:07:17;;;;;;;864.00;91.80;;;;;;;-144.73;100.00;54715.59;5032377;28;20044;-74
2024/01/12 03:09:43;;;;;;;249.63;52.20;;;;;;;-144.73;100.00;54670.44;5028672;28;20033;-73
2024/01/12 03:12:08;;;;;;;347.53;67.50;;;;;;;-144.73;100.00;54711.47;5032472;28;20029;-73
2024/01/12 03:14:33;;;;;;;704.07;92.23;;;;;;;-144.73;100.00;54670.44;5026813;28;20103;-74
2024/01/12 03:16:59;;;;;;;509.40;60.90;;;;;;;-144.73;100.00;54707.38;5031829;28;20102;-74
2024/01/12 03:19:24;;;;;;;554.10;76.67;;;;;;;-144.73;100.00;54670.44;5032787;28;20029;-73
2024/01/12 03:21:50;;;;;;;408.07;74.07;;;;;;;-144.73;100.00;54711.47;5032064;28;20107;-74
2024/01/12 03:24:15;;;;;;;848.90;98.93;;;;;;;-144.73;100.00;54693.00;5032942;28;20032;-73
2024/01/12 03:26:41;;;;;;;227.30;47.60;;;;;;;-144.73;100.00;54701.22;5032844;28;20041;-73
2024/01/12 03:29:06;;;;;;;341.80;61.57;;;;;;;-144.73;100.00;54686.84;5033013;28;20045;-73
2024/01/12 03:31:33;;;;;;;312.03;61.60;;;;;;;-144.73;100.00;54678.63;5032228;28;20037;-74
2024/01/12 03:33:58;;;;;;;411.93;60.87;;;;;;;-144.73;100.00;54707.38;5032613;28;20029;-73
2024/01/12 03:36:24;;;;;;;272.90;50.73;;;;;;;-144.73;100.00;54695.06;5032506;28;20044;-74
2024/01/12 03:38:53;;;;;;;305.73;56.50;;;;;;;-144.73;100.00;54695.06;5033157;28;20025;-73
2024/01/12 03:41:18;;;;;;;201.17;50.43;;;;;;;-144.73;100.00;54711.47;5026385;28;20039;-73
2024/01/12 03:43:43;;;;;;;475.13;50.20;;;;;;;-144.73;100.00;54707.38;5032487;28;20033;-73
2024/01/12 03:46:09;;;;;;;484.40;70.33;;;;;;;-144.73;100.00;54699.16;5032378;28;20491;-73
2024/01/12 03:48:34;;;;;;;718.30;78.17;;;;;;;-144.73;100.00;54686.84;5030149;28;20064;-73
2024/01/12 03:50:59;;;;;;;772.20;76.70;;;;;;;-144.73;100.00;54662.22;5031179;28;20052;-73
2024/01/12 03:53:27;;;;;;;850.53;82.70;;;;;;;-144.73;100.00;54752.53;5032855;28;20029;-73
2024/01/12 03:55:53;;;;;;;735.77;78.77;;;;;;;-144.73;100.00;54707.38;5032129;28;20056;-74
2024/01/12 03:58:19;;;;;;;594.67;65.93;;;;;;;-144.73;100.00;54686.84;5032735;28;20036;-73
2024/01/12 04:00:44;;;;;;;506.10;63.70;;;;;;;-144.73;100.00;54707.38;5032125;28;20112;-74
2024/01/12 04:03:09;;;;;;;543.80;63.83;;;;;;;-144.73;100.00;54682.75;5032606;28;20035;-72
2024/01/12 04:05:35;;;;;;;849.03;97.20;;;;;;;-144.73;100.00;54686.84;5033964;28;20028;-71
2024/01/12 04:08:00;;;;;;;732.17;84.40;;;;;;;-144.73;100.00;54707.38;5036652;28;20056;-73
2024/01/12 04:10:25;;;;;;;626.87;72.20;;;;;;;-144.73;100.00;54690.97;5036079;28;20055;-73
2024/01/12 04:12:51;;;;;;;373.43;47.33;;;;;;;-144.73;100.00;54699.16;5035411;28;20041;-73
2024/01/12 04:15:16;;;;;;;448.93;67.80;;;;;;;-144.73;100.00;54670.44;5053881;28;20396;-72
2024/01/12 04:17:41;;;;;;;622.20;60.90;;;;;;;-144.73;100.00;54693.00;5035705;28;20055;-72
2024/01/12 04:20:09;;;;;;;836.63;86.90;;;;;;;-144.73;100.00;54715.59;5053228;28;20025;-73
2024/01/12 04:22:37;;;;;;;434.40;54.30;;;;;;;-144.73;100.00;54690.97;5033832;28;20033;-72
2024/01/12 04:25:03;;;;;;;522.00;71.83;;;;;;;-144.73;100.00;54711.47;5033510;28;20036;-73
2024/01/12 04:27:29;;;;;;;669.33;85.93;;;;;;;-144.73;100.00;54727.91;5031725;28;20029;-72
2024/01/12 04:29:54;;;;;;;208.40;47.27;;;;;;;-144.73;100.00;54695.06;5035728;28;20032;-74
2024/01/12 04:32:20;;;;;;;280.43;50.57;;;;;;;-144.73;100.00;54707.38;5035156;28;20029;-73
2024/01/12 04:34:45;;;;;;;534.70;56.37;;;;;;;-144.73;100.00;54695.06;5035316;28;20043;-72
2024/01/12 04:37:10;;;;;;;654.53;82.83;;;;;;;-144.73;100.00;54707.38;5054829;28;20595;-72
2024/01/12 04:39:36;;;;;;;440.13;59.40;;;;;;;-144.73;100.00;54660.16;5035617;28;20031;-72
2024/01/12 04:42:01;;;;;;;466.20;65.93;;;;;;;-144.73;100.00;54686.84;5052739;28;20176;-72
2024/01/12 04:44:27;;;;;;;624.23;70.47;;;;;;;-144.73;100.00;54690.97;5053347;28;20028;-72
2024/01/12 04:46:52;;;;;;;493.37;65.50;;;;;;;-144.73;100.00;54707.38;5052981;28;20147;-72
2024/01/12 04:49:18;;;;;;;646.20;80.33;;;;;;;-144.73;100.00;54682.75;5028000;28;20061;-72
2024/01/12 04:51:43;;;;;;;900.40;104.90;;;;;;;-144.73;100.00;54711.47;5035117;28;20029;-73
2024/01/12 04:54:08;;;;;;;599.93;81.57;;;;;;;-144.73;100.00;54703.28;5054729;28;20024;-73
2024/01/12 04:56:34;;;;;;;583.23;80.70;;;;;;;-144.73;100.00;54662.22;5040040;28;20065;-73
2024/01/12 04:58:59;;;;;;;514.13;76.47;;;;;;;-144.73;100.00;54686.84;5035113;28;20083;-72
2024/01/12 05:01:25;;;;;;;307.53;70.60;;;;;;;-144.73;100.00;54690.97;5034567;28;20033;-72
2024/01/12 05:03:51;;;;;;;377.97;65.63;;;;;;;-144.73;100.00;54690.97;5029794;28;20037;-73
2024/01/12 05:06:16;;;;;;;390.97;60.23;;;;;;;-144.73;100.00;54711.47;5034637;28;20040;-72
2024/01/12 05:08:41;;;;;;;338.27;68.57;;;;;;;-144.73;100.00;54713.53;5053456;28;20031;-73
2024/01/12 05:11:07;;;;;;;661.80;83.77;;;;;;;-144.73;100.00;54690.97;5032718;28;20075;-73
2024/01/12 05:13:32;;;;;;;398.50;68.40;;;;;;;-144.73;100.00;54719.69;5045416;28;20037;-73
2024/01/12 05:15:57;;;;;;;433.00;63.90;;;;;;;-144.73;100.00;54682.75;5052011;28;20033;-73
2024/01/12 05:18:23;;;;;;;709.13;85.43;;;;;;;-144.73;100.00;54711.47;5030354;28;20461;-73
2024/01/12 05:20:48;;;;;;;594.43;91.37;;;;;;;-144.73;100.00;54695.06;5030841;28;20032;-73
2024/01/12 05:23:13;;;;;;;331.03;61.67;;;;;;;-144.73;100.00;54715.59;5034231;28;20017;-72
2024/01/12 05:25:39;;;;;;;531.27;85.00;;;;;;;-144.73;100.00;54707.38;5034627;28;20035;-72
2024/01/12 05:28:04;;;;;;;644.40;97.77;;;;;;;-144.73;100.00;54682.75;5035072;28;20078;-72
2024/01/12 05:30:30;;;;;;;340.80;65.23;;;;;;;-144.73;100.00;54695.06;5032398;28;20092;-72
2024/01/12 05:32:56;;;;;;;347.87;59.80;;;;;;;-144.73;100.00;54703.28;5051815;28;20368;-72
2024/01/12 05:35:21;;;;;;;267.97;53.17;;;;;;;-144.73;100.00;54678.63;5034003;28;20024;-72
2024/01/12 05:37:46;;;;;;;658.43;83.53;;;;;;;-144.73;100.00;54703.28;5052109;28;20032;-72
2024/01/12 05:40:12;;;;;;;648.33;76.43;;;;;;;-144.73;100.00;54695.06;5034316;28;20028;-72
2024/01/12 05:42:37;;;;;;;538.70;75.13;;;;;;;-144.73;100.00;54637.59;5033864;28;20032;-74
2024/01/12 05:45:03;;;;;;;476.17;66.50;;;;;;;-144.73;100.00;54678.63;5034163;28;20027;-72
2024/01/12 05:47:28;;;;;;;385.50;63.67;;;;;;;-144.73;100.00;54711.47;5052412;28;20055;-72
2024/01/12 05:49:53;;;;;;;793.90;78.40;;;;;;;-144.73;100.00;54676.59;5033851;28;20070;-73
2024/01/12 05:52:19;;;;;;;496.60;67.60;;;;;;;-144.73;100.00;54690.97;5033786;28;20029;-73
2024/01/12 05:54:44;;;;;;;632.90;82.60;;;;;;;-144.73;100.00;54674.53;5034046;28;20052;-73
2024/01/12 05:57:10;;;;;;;437.57;53.30;;;;;;;-144.73;100.00;54707.38;5031536;28;20071;-72
2024/01/12 05:59:35;;;;;;;569.63;71.70;;;;;;;-144.73;100.00;54676.59;5030650;28;20028;-72
2024/01/12 06:02:00;;;;;;;836.03;92.27;;;;;;;-144.73;100.00;54695.06;5033477;28;20041;-72
2024/01/12 06:04:26;;;;;;;309.20;62.47;;;;;;;-144.73;100.00;54631.44;5031269;28;20082;-72
2024/01/12 06:06:51;;;;;;;241.80;54.30;;;;;;;-144.73;100.00;54658.13;5033581;28;20045;-72
2024/01/12 06:09:17;;;;;;;150.63;45.10;;;;;;;-144.73;100.00;54678.63;5030956;28;20025;-73
2024/01/12 06:11:43;;;;;;;182.50;48.13;;;;;;;-144.73;100.00;54662.22;5030602;28;20171;-72
2024/01/12 06:14:09;;;;;;;197.10;43.40;;;;;;;-144.73;100.00;54670.44;5029393;28;20044;-73
2024/01/12 06:16:35;;;;;;;161.73;42.80;;;;;;;-144.73;100.00;54705.31;5033310;28;20025;-73
2024/01/12 06:19:01;;;;;;;496.33;72.23;;;;;;;-144.73;100.00;54662.22;5034257;28;20021;-72
2024/01/12 06:21:27;;;;;;;422.27;60.97;;;;;;;-144.73;100.00;54686.84;5031552;28;20036;-72
2024/01/12 06:23:52;;;;;;;442.33;56.70;;;;;;;-144.73;100.00;54690.97;5051727;28;20033;-72
2024/01/12 06:26:18;;;;;;;352.50;62.20;;;;;;;-144.73;100.00;54662.22;5032997;28;20029;-73
2024/01/12 06:28:43;;;;;;;254.73;52.07;;;;;;;-144.73;100.00;54686.84;5031424;28;20043;-73
2024/01/12 06:31:08;;;;;;;185.93;48.73;;;;;;;-144.73;100.00;54686.84;5051110;28;20021;-73
2024/01/12 06:33:34;;;;;;;127.00;41.67;;;;;;;-144.73;100.00;54699.16;5032914;28;20078;-72
2024/01/12 06:36:01;;;;;;;109.13;37.33;;;;;;;-144.73;100.00;54707.38;5028580;28;20503;-72
2024/01/12 06:38:27;;;;;;;96.17;39.00;;;;;;;-144.73;100.00;54678.63;5033099;28;20039;-71
2024/01/12 06:40:52;;;;;;;93.27;36.73;;;;;;;-144.73;100.00;54674.53;5033969;28;20032;-73
2024/01/12 06:43:18;;;;;;;105.30;38.40;;;;;;;-144.73;100.00;54699.16;5033505;28;20108;-72
2024/01/12 06:45:43;;;;;;;117.57;41.83;;;;;;;-144.73;100.00;54699.16;5034617;28;20025;-73
2024/01/12 06:48:10;;;;;;;118.27;39.00;;;;;;;-144.73;100.00;54682.75;5033996;28;20052;-72
2024/01/12 06:50:35;;;;;;;111.77;38.07;;;;;;;-144.73;100.00;54678.63;5033222;28;20439;-73
2024/01/12 06:53:04;;;;;;;123.67;41.80;;;;;;;-144.73;100.00;54707.38;5033354;28;20044;-73
2024/01/12 06:55:29;;;;;;;117.63;37.87;;;;;;;-144.73;100.00;54674.53;5051506;28;20020;-72
2024/01/12 06:57:55;;;;;;;153.83;44.50;;;;;;;-144.73;100.00;54754.59;5033132;28;20040;-74
2024/01/12 07:00:20;;;;;;;238.80;48.00;;;;;;;-144.73;100.00;54756.66;5033103;28;20021;-73
2024/01/12 07:02:46;;;;;;;167.33;46.27;;;;;;;-144.73;100.00;54686.84;5033101;28;20044;-73
2024/01/12 07:05:13;;;;;;;229.70;51.27;;;;;;;-144.73;100.00;54682.75;5050226;28;20052;-73
2024/01/12 07:07:41;;;;;;;231.43;53.07;;;;;;;-144.73;100.00;54674.53;5030022;28;20044;-73
2024/01/12 07:10:08;;;;;;;317.20;53.90;;;;;;;-144.73;100.00;54645.78;5033027;28;20028;-73
2024/01/12 07:12:33;;;;;;;355.70;59.90;;;;;;;-144.73;100.00;54719.69;5049754;28;20040;-73
2024/01/12 07:14:59;;;;;;;197.60;48.27;;;;;;;-144.73;100.00;54680.69;5032955;28;20021;-73
2024/01/12 07:17:24;;;;;;;152.67;42.50;;;;;;;-144.73;100.00;54670.44;5050237;28;20037;-73
2024/01/12 07:19:49;;;;;;;157.33;43.80;;;;;;;-144.73;100.00;54727.91;5033251;28;20032;-74
2024/01/12 07:22:15;;;;;;;319.73;51.50;;;;;;;-144.73;100.00;54690.97;5032362;28;20064;-74
2024/01/12 07:24:43;;;;;;;367.53;48.63;;;;;;;-144.73;100.00;54723.81;5033644;28;20119;-73
2024/01/12 07:27:09;;;;;;;471.90;66.90;;;;;;;-144.73;100.00;54717.66;5032583;28;20079;-73
2024/01/12 07:29:34;;;;;;;427.13;54.07;;;;;;;-144.73;100.00;54711.47;5033893;28;20013;-74
2024/01/12 07:32:00;;;;;;;312.47;51.40;;;;;;;-144.73;100.00;54649.91;5032723;28;20056;-73
2024/01/12 07:34:25;;;;;;;430.93;60.43;;;;;;;-144.73;100.00;54709.44;5031991;28;20037;-73
2024/01/12 07:36:50;;;;;;;400.63;60.67;;;;;;;-144.73;100.00;54645.78;5032584;28;20402;-74
2024/01/12 07:39:16;;;;;;;296.80;42.83;;;;;;;-144.73;100.00;54715.59;5032553;28;20116;-74
2024/01/12 07:41:42;;;;;;;460.07;62.70;;;;;;;-144.73;100.00;54703.28;5035862;28;20052;-73
2024/01/12 07:44:12;;;;;;;357.50;55.97;;;;;;;-144.73;100.00;54658.13;5036410;28;20031;-74
2024/01/12 07:46:39;;;;;;;366.20;58.97;;;;;;;-144.73;100.00;54715.59;5036256;28;20036;-73
2024/01/12 07:49:04;;;;;;;391.33;60.93;;;;;;;-144.73;100.00;54699.16;5036188;28;20024;-74
2024/01/12 07:51:30;;;;;;;374.50;58.03;;;;;;;-144.73;100.00;54715.59;5037583;28;20033;-74
2024/01/12 07:53:55;;;;;;;305.27;50.90;;;;;;;-144.73;100.00;54729.97;5038209;28;20089;-74
2024/01/12 07:56:20;;;;;;;289.87;47.80;;;;;;;-144.73;100.00;54719.69;5035972;28;20029;-74
2024/01/12 07:58:47;;;;;;;315.80;58.00;;;;;;;-144.73;100.00;54723.81;5035081;28;20028;-74
2024/01/12 08:01:14;;;;;;;225.70;40.67;;;;;;;-144.73;100.00;54682.75;5053669;28;20480;-74
2024/01/12 08:03:40;;;;;;;390.03;61.73;;;;;;;-144.73;100.00;54715.59;5037933;28;20144;-74
2024/01/12 08:06:06;;;;;;;368.53;54.03;;;;;;;-144.73;100.00;54711.47;5035972;28;20508;-74
2024/01/12 08:08:31;;;;;;;317.47;53.77;;;;;;;-144.73;100.00;54682.75;5030098;28;20434;-73
2024/01/12 08:10:57;;;;;;;348.87;51.20;;;;;;;-144.73;100.00;54717.66;5035979;28;20031;-73
2024/01/12 08:13:23;;;;;;;335.90;45.67;;;;;;;-144.73;100.00;54711.47;5036837;28;20530;-73
2024/01/12 08:15:48;;;;;;;454.83;57.40;;;;;;;-144.73;100.00;54740.22;5036077;28;20499;-73
2024/01/12 08:18:14;;;;;;;266.83;40.73;;;;;;;-144.73;100.00;54727.91;5057110;28;20025;-73
2024/01/12 08:20:39;;;;;;;336.87;47.13;;;;;;;-144.73;100.00;54707.38;5035728;28;20017;-74
2024/01/12 08:23:05;;;;;;;385.23;49.80;;;;;;;-144.73;100.00;54690.97;5035797;28;20025;-74
2024/01/12 08:25:30;;;;;;;363.83;49.07;;;;;;;-144.73;100.00;54699.16;5035628;28;20052;-73
2024/01/12 08:27:56;;;;;;;347.40;46.27;;;;;;;-144.73;100.00;54674.53;5035610;28;20502;-74
2024/01/12 08:30:22;;;;;;;328.33;44.90;;;;;;;-144.73;100.00;54723.81;5050331;28;20051;-73
2024/01/12 08:32:47;;;;;;;376.87;53.07;;;;;;;-144.73;100.00;54711.47;5053271;28;20036;-73
2024/01/12 08:35:13;;;;;;;289.37;45.77;;;;;;;-144.73;100.00;54699.16;5050797;28;20524;-74
2024/01/12 08:37:38;;;;;;;319.47;43.73;;;;;;;-144.73;100.00;54727.91;5034839;28;20033;-68
2024/01/12 08:40:04;;;;;;;256.47;39.67;;;;;;;-144.73;100.00;54713.53;5055804;28;20033;-68
2024/01/12 08:42:29;;;;;;;272.60;46.67;;;;;;;-144.73;100.00;54699.16;5059260;28;20029;-69
2024/01/12 08:44:54;;;;;;;264.53;42.00;;;;;;;-144.73;100.00;54711.47;5057566;28;20132;-69
2024/01/12 08:47:20;;;;;;;273.53;43.80;;;;;;;-144.73;100.00;54715.59;5037900;28;20029;-66
2024/01/12 08:49:45;;;;;;;304.83;45.60;;;;;;;-144.73;100.00;54707.38;5040039;28;20032;-66
2024/01/12 08:52:10;;;;;;;312.33;46.37;;;;;;;-144.73;100.00;54682.75;5058260;28;20032;-66
2024/01/12 08:54:36;;;;;;;314.67;45.23;;;;;;;-144.73;100.00;54740.22;5054324;28;20041;-67
2024/01/12 08:57:01;;;;;;;229.67;40.60;;;;;;;-144.73;100.00;54707.38;5055369;28;20045;-67
2024/01/12 08:59:27;;;;;;;292.00;46.47;;;;;;;-144.73;100.00;54682.75;5051514;28;20087;-65
2024/01/12 09:01:52;;;;;;;334.23;50.00;;;;;;;-144.73;100.00;54695.06;5033317;28;20033;-67
2024/01/12 09:04:18;;;;;;;287.70;46.00;;;;;;;-144.73;100.00;54695.06;5037340;28;20119;-66
2024/01/12 09:06:43;;;;;;;296.17;47.90;;;;;;;-144.73;100.00;54705.31;5056448;28;20041;-66
2024/01/12 09:09:09;;;;;;;304.57;50.83;;;;;;;-144.73;100.00;54715.59;5035045;28;20096;-67
2024/01/12 09:11:34;;;;;;;302.00;46.33;;;;;;;-144.73;100.00;54715.59;5034749;28;20030;-67
2024/01/12 09:14:00;;;;;;;313.95;45.35;;;;;;;-144.73;100.00;54719.69;5054756;28;20025;-67
2024/01/12 09:16:26;;;;;;;306.77;46.23;;;;;;;-144.73;100.00;54723.81;5034775;28;20035;-67
2024/01/12 09:18:51;;;;;;;269.17;43.13;;;;;;;-144.73;100.00;54719.69;5034801;28;20487;-68
2024/01/12 09:21:16;;;;;;;392.13;51.37;;;;;;;-144.73;100.00;54678.63;5032838;28;20026;-67
2024/01/12 09:23:43;;;;;;;288.53;45.03;;;;;;;-144.73;100.00;54672.47;5035081;28;20043;-66
2024/01/12 09:26:09;;;;;;;323.00;47.20;;;;;;;-144.73;100.00;54703.28;5034147;28;20040;-66
2024/01/12 09:28:38;;;;;;;339.60;49.23;;;;;;;-144.73;100.00;54744.31;5035089;28;20143;-65
2024/01/12 09:31:04;;;;;;;407.83;56.80;;;;;;;-144.73;100.00;54684.78;5030131;28;20087;-66
2024/01/12 09:33:30;;;;;;;384.37;56.67;;;;;;;-144.73;100.00;54711.47;5047013;28;20021;-66
2024/01/12 09:35:55;;;;;;;354.77;54.38;;;;;;;-144.73;100.00;54707.38;5050614;28;20025;-66
2024/01/12 09:38:21;;;;;;;405.17;54.90;;;;;;;-144.73;100.00;54705.31;5032544;28;20059;-66
2024/01/12 09:40:47;;;;;;;278.50;51.53;;;;;;;-144.73;100.00;54715.59;5034832;28;20057;-66
2024/01/12 09:43:14;;;;;;;381.02;56.58;;;;;;;-144.73;100.00;54719.69;5030650;28;20063;-66
2024/01/12 09:45:44;;;;;;;280.15;49.70;;;;;;;-144.73;100.00;54723.81;5053423;28;20099;-66
2024/01/12 09:48:11;;;;;;;361.80;55.97;;;;;;;-144.73;100.00;54723.81;5029055;28;20037;-66
2024/01/12 09:50:38;;;;;;;277.45;49.22;;;;;;;-144.73;100.00;54715.59;5045105;28;20021;-65
2024/01/12 09:53:03;;;;;;;332.95;47.88;;;;;;;-144.73;100.00;54695.06;5028526;28;20514;-66
2024/01/12 09:55:29;;;;;;;330.35;49.95;;;;;;;-144.73;100.00;54707.38;5043512;28;20047;-66
2024/01/12 09:57:55;;;;;;;356.60;52.50;;;;;;;-144.73;100.00;54678.63;5031729;28;20044;-66
2024/01/12 10:00:24;;;;;;;343.50;49.65;;;;;;;-144.73;100.00;54740.22;5026005;28;20024;-66
2024/01/12 10:02:49;;;;;;;311.85;54.67;;;;;;;-144.73;100.00;54690.97;5043406;28;20116;-66
2024/01/12 10:05:15;;;;;;;275.33;51.93;;;;;;;-144.73;100.00;54686.84;5031976;28;20119;-66
2024/01/12 10:07:40;;;;;;;600.92;70.07;;;;;;;-144.73;100.00;54699.16;5029984;28;20111;-66
2024/01/12 10:10:06;;;;;;;337.20;55.83;;;;;;;-144.73;100.00;54682.75;5025476;28;20108;-66
2024/01/12 10:12:31;;;;;;;275.30;51.30;;;;;;;-144.73;100.00;54695.06;5030445;28;20048;-66
2024/01/12 10:15:04;;;;;;;293.33;50.42;;;;;;;-144.73;100.00;54717.66;5030963;28;20021;-65
2024/01/12 10:17:30;;;;;;;239.93;46.05;;;;;;;-144.73;100.00;54760.75;5026854;28;20049;-65
2024/01/12 10:19:56;;;;;;;244.95;47.55;;;;;;;-144.73;100.00;54670.44;5045024;28;20506;-65
2024/01/12 10:22:21;;;;;;;240.02;47.28;;;;;;;-144.73;100.00;54715.59;5010736;28;20033;-68
2024/01/12 10:24:56;;;;;;;289.40;50.58;;;;;;;-144.73;100.00;54707.38;5045999;28;20033;-67
2024/01/12 10:27:21;;;;;;;264.27;49.10;;;;;;;-144.73;100.00;54682.75;5050260;28;20549;-66
2024/01/12 10:29:47;;;;;;;316.52;52.38;;;;;;;-144.73;100.00;54748.44;5030853;28;20346;-66
2024/01/12 10:32:12;;;;;;;216.65;43.13;;;;;;;-144.73;100.00;54715.59;5048452;28;20071;-67
2024/01/12 10:34:39;;;;;;;249.02;48.33;;;;;;;-144.73;100.00;54715.59;5030869;28;20476;-67
2024/01/12 10:37:07;;;;;;;207.77;44.17;;;;;;;-144.73;100.00;54723.81;5030833;28;20025;-66
2024/01/12 10:39:35;;;;;;;228.02;45.05;;;;;;;-144.73;100.00;54719.69;5052200;28;20028;-67